sensor_id;sensor_type;location;lat;lon;timestamp;P1;durP1;ratioP1;P2;durP2;ratioP2
69588;SDS011;56792;50.644;17.984;2022-12-10T00:01:33;44.70;;;22.10;;
69588;SDS011;56792;50.644;17.984;2022-12-10T00:04:07;43.90;;;22.40;;
69588;SDS011;56792;50.644;17.984;2022-12-10T00:06:40;51.20;;;24.60;;
69588;SDS011;56792;50.644;17.984;2022-12-10T00:09:18;53.20;;;24.50;;
69588;SDS011;56792;50.644;17.984;2022-12-10T00:12:00;51.80;;;24.60;;
69588;SDS011;56792;50.644;17.984;2022-12-10T00:14:48;50.30;;;25.20;;
69588;SDS011;56792;50.644;17.984;2022-12-10T00:17:20;51.70;;;25.40;;
69588;SDS011;56792;50.644;17.984;2022-12-10T00:19:52;49.80;;;24.70;;
69588;SDS011;56792;50.644;17.984;2022-12-10T00:22:25;42.90;;;22.70;;
69588;SDS011;56792;50.644;17.984;2022-12-10T00:24:57;44.90;;;23.20;;
69588;SDS011;56792;50.644;17.984;2022-12-10T00:27:30;44.20;;;22.70;;
69588;SDS011;56792;50.644;17.984;2022-12-10T00:30:03;43.10;;;22.10;;
69588;SDS011;56792;50.644;17.984;2022-12-10T00:32:36;50.10;;;24.00;;
69588;SDS011;56792;50.644;17.984;2022-12-10T00:35:10;45.70;;;22.70;;
69588;SDS011;56792;50.644;17.984;2022-12-10T00:37:42;47.20;;;23.40;;
69588;SDS011;56792;50.644;17.984;2022-12-10T00:40:15;48.80;;;23.10;;
69588;SDS011;56792;50.644;17.984;2022-12-10T00:42:47;48.80;;;24.10;;
69588;SDS011;56792;50.644;17.984;2022-12-10T00:45:20;48.60;;;22.80;;
69588;SDS011;56792;50.644;17.984;2022-12-10T00:47:53;63.70;;;32.80;;
69588;SDS011;56792;50.644;17.984;2022-12-10T00:50:26;58.20;;;30.90;;
69588;SDS011;56792;50.644;17.984;2022-12-10T00:52:59;48.50;;;23.20;;
69588;SDS011;56792;50.644;17.984;2022-12-10T00:55:32;52.40;;;23.30;;
69588;SDS011;56792;50.644;17.984;2022-12-10T00:58:04;46.10;;;23.70;;
69588;SDS011;56792;50.644;17.984;2022-12-10T01:00:37;44.80;;;22.00;;
69588;SDS011;56792;50.644;17.984;2022-12-10T01:03:09;44.70;;;22.00;;
69588;SDS011;56792;50.644;17.984;2022-12-10T01:05:42;39.30;;;20.50;;
69588;SDS011;56792;50.644;17.984;2022-12-10T01:08:14;40.70;;;20.40;;
69588;SDS011;56792;50.644;17.984;2022-12-10T01:10:51;44.90;;;23.20;;
69588;SDS011;56792;50.644;17.984;2022-12-10T01:13:26;71.30;;;36.60;;
69588;SDS011;56792;50.644;17.984;2022-12-10T01:15:59;57.20;;;28.40;;
69588;SDS011;56792;50.644;17.984;2022-12-10T01:18:32;49.10;;;24.70;;
69588;SDS011;56792;50.644;17.984;2022-12-10T01:21:06;42.80;;;21.70;;
69588;SDS011;56792;50.644;17.984;2022-12-10T01:23:42;41.40;;;21.10;;
69588;SDS011;56792;50.644;17.984;2022-12-10T01:26:18;43.90;;;20.90;;
69588;SDS011;56792;50.644;17.984;2022-12-10T01:28:52;47.20;;;23.00;;
69588;SDS011;56792;50.644;17.984;2022-12-10T01:31:26;48.20;;;23.60;;
69588;SDS011;56792;50.644;17.984;2022-12-10T01:34:00;47.70;;;22.80;;
69588;SDS011;56792;50.644;17.984;2022-12-10T01:36:41;43.50;;;21.20;;
69588;SDS011;56792;50.644;17.984;2022-12-10T01:39:16;44.60;;;22.70;;
69588;SDS011;56792;50.644;17.984;2022-12-10T01:41:51;59.90;;;28.10;;
69588;SDS011;56792;50.644;17.984;2022-12-10T01:47:39;50.70;;;24.40;;
69588;SDS011;56792;50.644;17.984;2022-12-10T01:50:12;49.20;;;24.20;;
69588;SDS011;56792;50.644;17.984;2022-12-10T01:52:45;47.20;;;21.70;;
69588;SDS011;56792;50.644;17.984;2022-12-10T01:55:42;50.20;;;23.80;;
69588;SDS011;56792;50.644;17.984;2022-12-10T01:58:19;45.00;;;22.00;;
69588;SDS011;56792;50.644;17.984;2022-12-10T02:01:02;44.00;;;19.70;;
69588;SDS011;56792;50.644;17.984;2022-12-10T02:03:47;53.40;;;23.20;;
69588;SDS011;56792;50.644;17.984;2022-12-10T02:06:35;92.50;;;41.50;;
69588;SDS011;56792;50.644;17.984;2022-12-10T02:09:22;60.70;;;29.50;;
69588;SDS011;56792;50.644;17.984;2022-12-10T02:12:07;56.60;;;26.80;;
69588;SDS011;56792;50.644;17.984;2022-12-10T02:14:54;45.60;;;22.60;;
69588;SDS011;56792;50.644;17.984;2022-12-10T02:17:34;41.40;;;20.60;;
69588;SDS011;56792;50.644;17.984;2022-12-10T02:20:14;45.40;;;20.50;;
69588;SDS011;56792;50.644;17.984;2022-12-10T02:22:54;42.60;;;20.10;;
69588;SDS011;56792;50.644;17.984;2022-12-10T02:25:34;44.80;;;21.90;;
69588;SDS011;56792;50.644;17.984;2022-12-10T02:28:19;38.50;;;17.90;;
69588;SDS011;56792;50.644;17.984;2022-12-10T02:31:02;39.00;;;19.70;;
69588;SDS011;56792;50.644;17.984;2022-12-10T02:33:42;43.70;;;21.10;;
69588;SDS011;56792;50.644;17.984;2022-12-10T02:36:18;43.00;;;20.20;;
69588;SDS011;56792;50.644;17.984;2022-12-10T02:38:54;44.70;;;20.90;;
69588;SDS011;56792;50.644;17.984;2022-12-10T02:41:35;46.80;;;20.20;;
69588;SDS011;56792;50.644;17.984;2022-12-10T02:44:13;42.80;;;21.80;;
69588;SDS011;56792;50.644;17.984;2022-12-10T02:46:50;44.70;;;20.60;;
69588;SDS011;56792;50.644;17.984;2022-12-10T02:49:30;43.30;;;18.80;;
69588;SDS011;56792;50.644;17.984;2022-12-10T02:52:09;40.40;;;20.20;;
69588;SDS011;56792;50.644;17.984;2022-12-10T02:54:47;43.60;;;19.90;;
69588;SDS011;56792;50.644;17.984;2022-12-10T02:57:31;42.30;;;19.60;;
69588;SDS011;56792;50.644;17.984;2022-12-10T03:00:14;41.50;;;19.20;;
69588;SDS011;56792;50.644;17.984;2022-12-10T03:03:14;38.80;;;18.90;;
69588;SDS011;56792;50.644;17.984;2022-12-10T03:06:00;41.90;;;19.70;;
69588;SDS011;56792;50.644;17.984;2022-12-10T03:08:41;42.10;;;19.40;;
69588;SDS011;56792;50.644;17.984;2022-12-10T03:11:19;44.20;;;18.90;;
69588;SDS011;56792;50.644;17.984;2022-12-10T03:13:57;40.40;;;18.50;;
69588;SDS011;56792;50.644;17.984;2022-12-10T03:16:36;42.00;;;20.90;;
69588;SDS011;56792;50.644;17.984;2022-12-10T03:19:14;43.00;;;20.20;;
69588;SDS011;56792;50.644;17.984;2022-12-10T03:21:50;42.70;;;18.60;;
69588;SDS011;56792;50.644;17.984;2022-12-10T03:24:28;37.60;;;18.40;;
69588;SDS011;56792;50.644;17.984;2022-12-10T03:27:05;41.20;;;19.80;;
69588;SDS011;56792;50.644;17.984;2022-12-10T03:29:44;42.70;;;20.20;;
69588;SDS011;56792;50.644;17.984;2022-12-10T03:32:20;40.80;;;19.40;;
69588;SDS011;56792;50.644;17.984;2022-12-10T03:34:57;43.00;;;20.10;;
69588;SDS011;56792;50.644;17.984;2022-12-10T03:37:32;42.80;;;18.80;;
69588;SDS011;56792;50.644;17.984;2022-12-10T03:40:08;48.30;;;22.10;;
69588;SDS011;56792;50.644;17.984;2022-12-10T03:42:43;43.80;;;20.60;;
69588;SDS011;56792;50.644;17.984;2022-12-10T03:45:16;47.40;;;23.20;;
69588;SDS011;56792;50.644;17.984;2022-12-10T03:47:49;44.20;;;22.30;;
69588;SDS011;56792;50.644;17.984;2022-12-10T03:50:21;44.70;;;22.20;;
69588;SDS011;56792;50.644;17.984;2022-12-10T03:52:54;38.30;;;18.00;;
69588;SDS011;56792;50.644;17.984;2022-12-10T03:55:27;40.90;;;18.70;;
69588;SDS011;56792;50.644;17.984;2022-12-10T03:58:00;44.30;;;20.70;;
69588;SDS011;56792;50.644;17.984;2022-12-10T04:00:33;42.50;;;20.00;;
69588;SDS011;56792;50.644;17.984;2022-12-10T04:03:05;45.00;;;21.70;;
69588;SDS011;56792;50.644;17.984;2022-12-10T04:05:38;42.60;;;22.60;;
69588;SDS011;56792;50.644;17.984;2022-12-10T04:08:11;46.80;;;23.70;;
69588;SDS011;56792;50.644;17.984;2022-12-10T04:10:43;43.70;;;24.00;;
69588;SDS011;56792;50.644;17.984;2022-12-10T04:13:16;43.00;;;19.30;;
69588;SDS011;56792;50.644;17.984;2022-12-10T04:16:07;39.80;;;18.40;;
69588;SDS011;56792;50.644;17.984;2022-12-10T04:18:59;41.90;;;18.90;;
69588;SDS011;56792;50.644;17.984;2022-12-10T04:21:35;45.70;;;19.40;;
69588;SDS011;56792;50.644;17.984;2022-12-10T04:24:28;42.90;;;19.40;;
69588;SDS011;56792;50.644;17.984;2022-12-10T04:27:21;41.30;;;19.20;;
69588;SDS011;56792;50.644;17.984;2022-12-10T04:29:56;44.10;;;18.90;;
69588;SDS011;56792;50.644;17.984;2022-12-10T04:32:30;37.90;;;17.80;;
69588;SDS011;56792;50.644;17.984;2022-12-10T04:35:03;49.70;;;21.90;;
69588;SDS011;56792;50.644;17.984;2022-12-10T04:37:37;68.10;;;31.90;;
69588;SDS011;56792;50.644;17.984;2022-12-10T04:40:12;57.00;;;27.10;;
69588;SDS011;56792;50.644;17.984;2022-12-10T04:42:44;48.10;;;23.20;;
69588;SDS011;56792;50.644;17.984;2022-12-10T04:45:17;44.40;;;19.40;;
69588;SDS011;56792;50.644;17.984;2022-12-10T04:47:51;41.50;;;18.10;;
69588;SDS011;56792;50.644;17.984;2022-12-10T04:50:23;43.50;;;18.40;;
69588;SDS011;56792;50.644;17.984;2022-12-10T04:52:55;40.60;;;17.50;;
69588;SDS011;56792;50.644;17.984;2022-12-10T04:55:28;43.70;;;18.90;;
69588;SDS011;56792;50.644;17.984;2022-12-10T04:58:00;41.50;;;17.20;;
69588;SDS011;56792;50.644;17.984;2022-12-10T05:00:32;43.60;;;17.80;;
69588;SDS011;56792;50.644;17.984;2022-12-10T05:03:05;39.90;;;18.10;;
69588;SDS011;56792;50.644;17.984;2022-12-10T05:05:37;47.50;;;19.80;;
69588;SDS011;56792;50.644;17.984;2022-12-10T05:08:10;43.70;;;19.60;;
69588;SDS011;56792;50.644;17.984;2022-12-10T05:10:42;57.10;;;28.30;;
69588;SDS011;56792;50.644;17.984;2022-12-10T05:13:15;55.40;;;27.20;;
69588;SDS011;56792;50.644;17.984;2022-12-10T05:15:48;52.60;;;23.30;;
69588;SDS011;56792;50.644;17.984;2022-12-10T05:18:20;46.40;;;19.20;;
69588;SDS011;56792;50.644;17.984;2022-12-10T05:20:53;39.60;;;18.70;;
69588;SDS011;56792;50.644;17.984;2022-12-10T05:23:28;36.70;;;16.30;;
69588;SDS011;56792;50.644;17.984;2022-12-10T05:26:03;45.30;;;19.70;;
69588;SDS011;56792;50.644;17.984;2022-12-10T05:28:39;43.40;;;19.20;;
69588;SDS011;56792;50.644;17.984;2022-12-10T05:31:16;39.00;;;17.00;;
69588;SDS011;56792;50.644;17.984;2022-12-10T05:33:50;43.90;;;18.00;;
69588;SDS011;56792;50.644;17.984;2022-12-10T05:36:26;50.70;;;21.30;;
69588;SDS011;56792;50.644;17.984;2022-12-10T05:39:00;45.20;;;19.90;;
69588;SDS011;56792;50.644;17.984;2022-12-10T05:41:37;44.00;;;18.80;;
69588;SDS011;56792;50.644;17.984;2022-12-10T05:44:11;42.60;;;12.30;;
69588;SDS011;56792;50.644;17.984;2022-12-10T05:46:43;39.40;;;16.90;;
69588;SDS011;56792;50.644;17.984;2022-12-10T05:49:16;36.20;;;16.70;;
69588;SDS011;56792;50.644;17.984;2022-12-10T05:51:49;40.00;;;17.30;;
69588;SDS011;56792;50.644;17.984;2022-12-10T05:54:24;44.20;;;19.60;;
69588;SDS011;56792;50.644;17.984;2022-12-10T05:56:56;37.50;;;16.50;;
69588;SDS011;56792;50.644;17.984;2022-12-10T05:59:29;35.00;;;15.70;;
69588;SDS011;56792;50.644;17.984;2022-12-10T06:02:01;34.60;;;14.80;;
69588;SDS011;56792;50.644;17.984;2022-12-10T06:04:34;39.00;;;14.80;;
69588;SDS011;56792;50.644;17.984;2022-12-10T06:07:06;31.60;;;14.90;;
69588;SDS011;56792;50.644;17.984;2022-12-10T06:09:38;34.00;;;14.80;;
69588;SDS011;56792;50.644;17.984;2022-12-10T06:12:11;37.30;;;16.80;;
69588;SDS011;56792;50.644;17.984;2022-12-10T06:14:43;32.90;;;14.00;;
69588;SDS011;56792;50.644;17.984;2022-12-10T06:17:16;39.80;;;16.70;;
69588;SDS011;56792;50.644;17.984;2022-12-10T06:19:48;40.00;;;16.50;;
69588;SDS011;56792;50.644;17.984;2022-12-10T06:22:21;33.80;;;13.20;;
69588;SDS011;56792;50.644;17.984;2022-12-10T06:24:53;40.80;;;16.90;;
69588;SDS011;56792;50.644;17.984;2022-12-10T06:27:26;37.50;;;14.60;;
69588;SDS011;56792;50.644;17.984;2022-12-10T06:30:00;39.30;;;17.10;;
69588;SDS011;56792;50.644;17.984;2022-12-10T06:32:32;36.50;;;15.60;;
69588;SDS011;56792;50.644;17.984;2022-12-10T06:35:06;44.50;;;17.20;;
69588;SDS011;56792;50.644;17.984;2022-12-10T06:37:39;42.30;;;15.60;;
69588;SDS011;56792;50.644;17.984;2022-12-10T06:40:12;41.70;;;14.70;;
69588;SDS011;56792;50.644;17.984;2022-12-10T06:42:45;41.10;;;15.50;;
69588;SDS011;56792;50.644;17.984;2022-12-10T06:45:20;41.90;;;15.00;;
69588;SDS011;56792;50.644;17.984;2022-12-10T06:47:53;43.00;;;15.50;;
69588;SDS011;56792;50.644;17.984;2022-12-10T06:50:26;41.80;;;13.70;;
69588;SDS011;56792;50.644;17.984;2022-12-10T06:52:59;33.70;;;11.60;;
69588;SDS011;56792;50.644;17.984;2022-12-10T06:55:32;35.00;;;12.30;;
69588;SDS011;56792;50.644;17.984;2022-12-10T06:58:06;34.40;;;12.90;;
69588;SDS011;56792;50.644;17.984;2022-12-10T07:00:39;45.90;;;15.00;;
69588;SDS011;56792;50.644;17.984;2022-12-10T07:03:12;38.40;;;13.90;;
69588;SDS011;56792;50.644;17.984;2022-12-10T07:05:45;39.40;;;13.80;;
69588;SDS011;56792;50.644;17.984;2022-12-10T07:08:19;35.70;;;13.80;;
69588;SDS011;56792;50.644;17.984;2022-12-10T07:10:52;37.40;;;13.40;;
69588;SDS011;56792;50.644;17.984;2022-12-10T07:13:24;38.50;;;13.30;;
69588;SDS011;56792;50.644;17.984;2022-12-10T07:15:57;35.70;;;13.40;;
69588;SDS011;56792;50.644;17.984;2022-12-10T07:18:30;37.20;;;12.90;;
69588;SDS011;56792;50.644;17.984;2022-12-10T07:21:04;40.80;;;14.90;;
69588;SDS011;56792;50.644;17.984;2022-12-10T07:23:45;43.30;;;15.60;;
69588;SDS011;56792;50.644;17.984;2022-12-10T07:26:17;35.40;;;12.10;;
69588;SDS011;56792;50.644;17.984;2022-12-10T07:28:50;38.10;;;14.00;;
69588;SDS011;56792;50.644;17.984;2022-12-10T07:31:23;33.30;;;12.40;;
69588;SDS011;56792;50.644;17.984;2022-12-10T07:33:56;38.10;;;12.90;;
69588;SDS011;56792;50.644;17.984;2022-12-10T07:36:29;34.50;;;13.10;;
69588;SDS011;56792;50.644;17.984;2022-12-10T07:39:04;37.60;;;12.80;;
69588;SDS011;56792;50.644;17.984;2022-12-10T07:41:37;43.20;;;14.50;;
69588;SDS011;56792;50.644;17.984;2022-12-10T07:44:11;32.50;;;13.00;;
69588;SDS011;56792;50.644;17.984;2022-12-10T07:46:44;34.70;;;12.20;;
69588;SDS011;56792;50.644;17.984;2022-12-10T07:49:17;38.60;;;14.00;;
69588;SDS011;56792;50.644;17.984;2022-12-10T07:51:50;37.70;;;13.70;;
69588;SDS011;56792;50.644;17.984;2022-12-10T07:54:23;42.60;;;15.50;;
69588;SDS011;56792;50.644;17.984;2022-12-10T07:56:55;44.80;;;16.10;;
69588;SDS011;56792;50.644;17.984;2022-12-10T07:59:28;40.40;;;16.60;;
69588;SDS011;56792;50.644;17.984;2022-12-10T08:02:00;37.20;;;13.30;;
69588;SDS011;56792;50.644;17.984;2022-12-10T08:04:32;34.70;;;13.40;;
69588;SDS011;56792;50.644;17.984;2022-12-10T08:07:06;39.80;;;15.00;;
69588;SDS011;56792;50.644;17.984;2022-12-10T08:09:39;36.70;;;14.00;;
69588;SDS011;56792;50.644;17.984;2022-12-10T08:12:11;41.70;;;16.10;;
69588;SDS011;56792;50.644;17.984;2022-12-10T08:14:44;39.60;;;14.30;;
69588;SDS011;56792;50.644;17.984;2022-12-10T08:17:17;34.40;;;12.60;;
69588;SDS011;56792;50.644;17.984;2022-12-10T08:19:50;42.70;;;15.50;;
69588;SDS011;56792;50.644;17.984;2022-12-10T08:22:23;35.50;;;13.30;;
69588;SDS011;56792;50.644;17.984;2022-12-10T08:24:56;38.40;;;14.50;;
69588;SDS011;56792;50.644;17.984;2022-12-10T08:27:28;41.70;;;13.40;;
69588;SDS011;56792;50.644;17.984;2022-12-10T08:30:06;38.70;;;13.90;;
69588;SDS011;56792;50.644;17.984;2022-12-10T08:32:41;38.30;;;14.80;;
69588;SDS011;56792;50.644;17.984;2022-12-10T08:35:14;34.60;;;12.50;;
69588;SDS011;56792;50.644;17.984;2022-12-10T08:37:46;34.90;;;12.20;;
69588;SDS011;56792;50.644;17.984;2022-12-10T08:40:19;35.40;;;14.00;;
69588;SDS011;56792;50.644;17.984;2022-12-10T08:42:53;38.60;;;14.60;;
69588;SDS011;56792;50.644;17.984;2022-12-10T08:45:25;36.20;;;13.80;;
69588;SDS011;56792;50.644;17.984;2022-12-10T08:47:58;37.60;;;13.70;;
69588;SDS011;56792;50.644;17.984;2022-12-10T08:50:31;35.50;;;12.90;;
69588;SDS011;56792;50.644;17.984;2022-12-10T08:53:04;35.00;;;14.00;;
69588;SDS011;56792;50.644;17.984;2022-12-10T08:55:39;30.30;;;12.40;;
69588;SDS011;56792;50.644;17.984;2022-12-10T08:58:12;36.80;;;13.30;;
69588;SDS011;56792;50.644;17.984;2022-12-10T09:00:44;33.80;;;12.50;;
69588;SDS011;56792;50.644;17.984;2022-12-10T09:03:17;35.60;;;12.80;;
69588;SDS011;56792;50.644;17.984;2022-12-10T09:05:50;33.10;;;13.10;;
69588;SDS011;56792;50.644;17.984;2022-12-10T09:08:22;33.30;;;11.90;;
69588;SDS011;56792;50.644;17.984;2022-12-10T09:10:55;31.90;;;13.90;;
69588;SDS011;56792;50.644;17.984;2022-12-10T09:13:28;29.10;;;11.90;;
69588;SDS011;56792;50.644;17.984;2022-12-10T09:16:00;35.90;;;14.30;;
69588;SDS011;56792;50.644;17.984;2022-12-10T09:18:33;37.60;;;13.90;;
69588;SDS011;56792;50.644;17.984;2022-12-10T09:21:09;36.20;;;13.10;;
69588;SDS011;56792;50.644;17.984;2022-12-10T09:23:43;33.40;;;13.50;;
69588;SDS011;56792;50.644;17.984;2022-12-10T09:26:17;32.50;;;12.20;;
69588;SDS011;56792;50.644;17.984;2022-12-10T09:28:51;39.90;;;11.70;;
69588;SDS011;56792;50.644;17.984;2022-12-10T09:31:24;38.20;;;15.00;;
69588;SDS011;56792;50.644;17.984;2022-12-10T09:34:00;33.70;;;12.90;;
69588;SDS011;56792;50.644;17.984;2022-12-10T09:36:32;35.10;;;13.40;;
69588;SDS011;56792;50.644;17.984;2022-12-10T09:39:05;29.20;;;12.20;;
69588;SDS011;56792;50.644;17.984;2022-12-10T09:41:56;31.20;;;12.20;;
69588;SDS011;56792;50.644;17.984;2022-12-10T09:44:45;29.30;;;12.00;;
69588;SDS011;56792;50.644;17.984;2022-12-10T09:47:28;32.20;;;12.60;;
69588;SDS011;56792;50.644;17.984;2022-12-10T09:50:16;36.80;;;15.30;;
69588;SDS011;56792;50.644;17.984;2022-12-10T09:52:52;32.90;;;13.40;;
69588;SDS011;56792;50.644;17.984;2022-12-10T09:55:31;37.00;;;14.90;;
69588;SDS011;56792;50.644;17.984;2022-12-10T09:58:08;42.80;;;18.70;;
69588;SDS011;56792;50.644;17.984;2022-12-10T10:00:48;43.40;;;19.20;;
69588;SDS011;56792;50.644;17.984;2022-12-10T10:03:23;38.30;;;15.90;;
69588;SDS011;56792;50.644;17.984;2022-12-10T10:05:57;33.50;;;14.00;;
69588;SDS011;56792;50.644;17.984;2022-12-10T10:08:33;39.50;;;14.60;;
69588;SDS011;56792;50.644;17.984;2022-12-10T10:11:14;37.30;;;14.80;;
69588;SDS011;56792;50.644;17.984;2022-12-10T10:13:52;33.70;;;13.30;;
69588;SDS011;56792;50.644;17.984;2022-12-10T10:16:33;33.90;;;12.80;;
69588;SDS011;56792;50.644;17.984;2022-12-10T10:19:13;33.40;;;15.10;;
69588;SDS011;56792;50.644;17.984;2022-12-10T10:21:49;37.90;;;16.00;;
69588;SDS011;56792;50.644;17.984;2022-12-10T10:24:23;41.10;;;17.90;;
69588;SDS011;56792;50.644;17.984;2022-12-10T10:27:07;40.40;;;17.20;;
69588;SDS011;56792;50.644;17.984;2022-12-10T10:29:46;37.30;;;18.90;;
69588;SDS011;56792;50.644;17.984;2022-12-10T10:32:25;40.60;;;18.00;;
69588;SDS011;56792;50.644;17.984;2022-12-10T10:35:28;35.40;;;17.30;;
69588;SDS011;56792;50.644;17.984;2022-12-10T10:38:07;36.50;;;15.10;;
69588;SDS011;56792;50.644;17.984;2022-12-10T10:40:51;42.10;;;18.40;;
69588;SDS011;56792;50.644;17.984;2022-12-10T10:43:28;43.00;;;18.00;;
69588;SDS011;56792;50.644;17.984;2022-12-10T10:46:06;38.50;;;16.70;;
69588;SDS011;56792;50.644;17.984;2022-12-10T10:48:45;37.20;;;16.10;;
69588;SDS011;56792;50.644;17.984;2022-12-10T10:51:21;34.90;;;14.20;;
69588;SDS011;56792;50.644;17.984;2022-12-10T10:53:55;35.90;;;13.80;;
69588;SDS011;56792;50.644;17.984;2022-12-10T10:56:31;34.40;;;15.40;;
69588;SDS011;56792;50.644;17.984;2022-12-10T10:59:29;38.30;;;15.10;;
69588;SDS011;56792;50.644;17.984;2022-12-10T11:02:14;35.00;;;13.80;;
69588;SDS011;56792;50.644;17.984;2022-12-10T11:04:52;34.30;;;15.50;;
69588;SDS011;56792;50.644;17.984;2022-12-10T11:07:35;39.70;;;15.80;;
69588;SDS011;56792;50.644;17.984;2022-12-10T11:10:19;36.60;;;16.00;;
69588;SDS011;56792;50.644;17.984;2022-12-10T11:13:03;32.50;;;13.70;;
69588;SDS011;56792;50.644;17.984;2022-12-10T11:15:38;39.50;;;15.10;;
69588;SDS011;56792;50.644;17.984;2022-12-10T11:18:26;37.70;;;16.40;;
69588;SDS011;56792;50.644;17.984;2022-12-10T11:21:07;37.40;;;14.70;;
69588;SDS011;56792;50.644;17.984;2022-12-10T11:23:53;30.60;;;14.40;;
69588;SDS011;56792;50.644;17.984;2022-12-10T11:26:42;37.20;;;15.10;;
69588;SDS011;56792;50.644;17.984;2022-12-10T11:29:39;36.00;;;15.00;;
69588;SDS011;56792;50.644;17.984;2022-12-10T11:35:43;35.20;;;14.20;;
69588;SDS011;56792;50.644;17.984;2022-12-10T11:38:28;34.80;;;13.50;;
69588;SDS011;56792;50.644;17.984;2022-12-10T11:41:10;39.90;;;16.20;;
69588;SDS011;56792;50.644;17.984;2022-12-10T11:44:10;38.60;;;16.90;;
69588;SDS011;56792;50.644;17.984;2022-12-10T11:50:09;40.20;;;16.80;;
69588;SDS011;56792;50.644;17.984;2022-12-10T11:53:02;46.40;;;18.10;;
69588;SDS011;56792;50.644;17.984;2022-12-10T11:55:52;37.60;;;16.40;;
69588;SDS011;56792;50.644;17.984;2022-12-10T11:58:48;44.10;;;17.40;;
69588;SDS011;56792;50.644;17.984;2022-12-10T12:01:50;40.30;;;16.30;;
69588;SDS011;56792;50.644;17.984;2022-12-10T12:05:00;38.60;;;15.20;;
69588;SDS011;56792;50.644;17.984;2022-12-10T12:07:52;37.70;;;15.10;;
69588;SDS011;56792;50.644;17.984;2022-12-10T12:11:06;44.90;;;17.80;;
69588;SDS011;56792;50.644;17.984;2022-12-10T12:13:57;43.30;;;16.60;;
69588;SDS011;56792;50.644;17.984;2022-12-10T12:16:42;47.50;;;19.00;;
69588;SDS011;56792;50.644;17.984;2022-12-10T12:19:22;48.40;;;17.40;;
69588;SDS011;56792;50.644;17.984;2022-12-10T12:22:04;46.70;;;17.30;;
69588;SDS011;56792;50.644;17.984;2022-12-10T12:24:47;41.10;;;18.20;;
69588;SDS011;56792;50.644;17.984;2022-12-10T12:27:33;45.30;;;18.60;;
69588;SDS011;56792;50.644;17.984;2022-12-10T12:30:16;47.20;;;18.10;;
69588;SDS011;56792;50.644;17.984;2022-12-10T12:32:56;50.40;;;19.00;;
69588;SDS011;56792;50.644;17.984;2022-12-10T12:35:38;47.70;;;17.90;;
69588;SDS011;56792;50.644;17.984;2022-12-10T12:38:26;47.10;;;18.30;;
69588;SDS011;56792;50.644;17.984;2022-12-10T12:41:10;44.80;;;17.70;;
69588;SDS011;56792;50.644;17.984;2022-12-10T12:43:55;42.70;;;15.80;;
69588;SDS011;56792;50.644;17.984;2022-12-10T12:46:40;42.50;;;16.10;;
69588;SDS011;56792;50.644;17.984;2022-12-10T12:49:20;51.50;;;19.00;;
69588;SDS011;56792;50.644;17.984;2022-12-10T12:52:05;48.90;;;18.70;;
69588;SDS011;56792;50.644;17.984;2022-12-10T12:54:50;44.30;;;17.20;;
69588;SDS011;56792;50.644;17.984;2022-12-10T12:57:30;43.60;;;16.30;;
69588;SDS011;56792;50.644;17.984;2022-12-10T13:00:15;44.00;;;16.80;;
69588;SDS011;56792;50.644;17.984;2022-12-10T13:02:57;44.90;;;17.10;;
69588;SDS011;56792;50.644;17.984;2022-12-10T13:05:44;44.70;;;17.30;;
69588;SDS011;56792;50.644;17.984;2022-12-10T13:08:44;48.40;;;20.00;;
69588;SDS011;56792;50.644;17.984;2022-12-10T13:11:31;46.20;;;17.70;;
69588;SDS011;56792;50.644;17.984;2022-12-10T13:14:27;39.20;;;15.10;;
69588;SDS011;56792;50.644;17.984;2022-12-10T13:17:23;43.30;;;16.70;;
69588;SDS011;56792;50.644;17.984;2022-12-10T13:20:33;35.60;;;14.80;;
69588;SDS011;56792;50.644;17.984;2022-12-10T13:23:30;38.90;;;15.60;;
69588;SDS011;56792;50.644;17.984;2022-12-10T13:26:17;42.50;;;16.50;;
69588;SDS011;56792;50.644;17.984;2022-12-10T13:29:10;42.10;;;17.90;;
69588;SDS011;56792;50.644;17.984;2022-12-10T13:32:03;46.20;;;16.60;;
69588;SDS011;56792;50.644;17.984;2022-12-10T13:34:45;48.20;;;19.00;;
69588;SDS011;56792;50.644;17.984;2022-12-10T13:37:52;47.40;;;17.50;;
69588;SDS011;56792;50.644;17.984;2022-12-10T13:40:39;43.80;;;18.20;;
69588;SDS011;56792;50.644;17.984;2022-12-10T13:43:38;41.10;;;18.00;;
69588;SDS011;56792;50.644;17.984;2022-12-10T13:46:32;45.80;;;17.00;;
69588;SDS011;56792;50.644;17.984;2022-12-10T13:49:12;49.20;;;18.50;;
69588;SDS011;56792;50.644;17.984;2022-12-10T13:51:56;40.60;;;15.70;;
69588;SDS011;56792;50.644;17.984;2022-12-10T14:01:13;39.00;;;17.30;;
69588;SDS011;56792;50.644;17.984;2022-12-10T14:04:02;45.00;;;16.50;;
69588;SDS011;56792;50.644;17.984;2022-12-10T14:06:52;42.60;;;16.50;;
69588;SDS011;56792;50.644;17.984;2022-12-10T14:09:27;42.80;;;17.60;;
69588;SDS011;56792;50.644;17.984;2022-12-10T14:12:07;40.60;;;17.20;;
69588;SDS011;56792;50.644;17.984;2022-12-10T14:14:47;38.80;;;16.50;;
69588;SDS011;56792;50.644;17.984;2022-12-10T14:17:33;40.00;;;16.90;;
69588;SDS011;56792;50.644;17.984;2022-12-10T14:20:13;42.30;;;16.90;;
69588;SDS011;56792;50.644;17.984;2022-12-10T14:22:50;37.10;;;17.10;;
69588;SDS011;56792;50.644;17.984;2022-12-10T14:25:46;45.40;;;17.10;;
69588;SDS011;56792;50.644;17.984;2022-12-10T14:28:20;35.60;;;15.10;;
69588;SDS011;56792;50.644;17.984;2022-12-10T14:30:52;33.60;;;13.90;;
69588;SDS011;56792;50.644;17.984;2022-12-10T14:33:26;40.40;;;16.00;;
69588;SDS011;56792;50.644;17.984;2022-12-10T14:36:00;32.00;;;14.10;;
69588;SDS011;56792;50.644;17.984;2022-12-10T14:38:35;37.50;;;16.00;;
69588;SDS011;56792;50.644;17.984;2022-12-10T14:41:08;42.10;;;17.10;;
69588;SDS011;56792;50.644;17.984;2022-12-10T14:43:44;35.80;;;15.50;;
69588;SDS011;56792;50.644;17.984;2022-12-10T14:46:20;48.60;;;21.00;;
69588;SDS011;56792;50.644;17.984;2022-12-10T14:48:58;54.50;;;22.80;;
69588;SDS011;56792;50.644;17.984;2022-12-10T14:51:36;51.00;;;21.90;;
69588;SDS011;56792;50.644;17.984;2022-12-10T14:54:25;51.70;;;22.20;;
69588;SDS011;56792;50.644;17.984;2022-12-10T14:57:04;58.80;;;25.80;;
69588;SDS011;56792;50.644;17.984;2022-12-10T14:59:42;52.10;;;24.20;;
69588;SDS011;56792;50.644;17.984;2022-12-10T15:02:22;55.00;;;26.30;;
69588;SDS011;56792;50.644;17.984;2022-12-10T15:04:58;51.70;;;22.60;;
69588;SDS011;56792;50.644;17.984;2022-12-10T15:07:35;52.60;;;23.30;;
69588;SDS011;56792;50.644;17.984;2022-12-10T15:10:16;48.30;;;20.80;;
69588;SDS011;56792;50.644;17.984;2022-12-10T15:12:54;50.60;;;21.00;;
69588;SDS011;56792;50.644;17.984;2022-12-10T15:15:33;52.90;;;22.10;;
69588;SDS011;56792;50.644;17.984;2022-12-10T15:18:14;53.70;;;21.40;;
69588;SDS011;56792;50.644;17.984;2022-12-10T15:20:52;55.60;;;21.50;;
69588;SDS011;56792;50.644;17.984;2022-12-10T15:23:35;40.00;;;17.40;;
69588;SDS011;56792;50.644;17.984;2022-12-10T15:26:17;43.40;;;17.70;;
69588;SDS011;56792;50.644;17.984;2022-12-10T15:29:29;45.90;;;17.50;;